sensor_id;sensor_type;location;lat;lon;timestamp;P1;durP1;ratioP1;P2;durP2;ratioP2
45618;SDS011;31343;47.520;19.144;2023-05-10T00:01:59;1.85;;;1.45;;
45618;SDS011;31343;47.520;19.144;2023-05-10T00:04:24;1.30;;;0.98;;
45618;SDS011;31343;47.520;19.144;2023-05-10T00:06:52;1.58;;;1.00;;
45618;SDS011;31343;47.520;19.144;2023-05-10T00:09:18;1.73;;;1.02;;
45618;SDS011;31343;47.520;19.144;2023-05-10T00:11:44;1.85;;;0.98;;
45618;SDS011;31343;47.520;19.144;2023-05-10T00:14:10;1.77;;;1.17;;
45618;SDS011;31343;47.520;19.144;2023-05-10T00:16:36;2.70;;;1.35;;
45618;SDS011;31343;47.520;19.144;2023-05-10T00:19:02;2.28;;;1.70;;
45618;SDS011;31343;47.520;19.144;2023-05-10T00:21:28;1.58;;;0.85;;
45618;SDS011;31343;47.520;19.144;2023-05-10T00:23:54;1.02;;;0.70;;
45618;SDS011;31343;47.520;19.144;2023-05-10T00:26:20;1.02;;;0.93;;
45618;SDS011;31343;47.520;19.144;2023-05-10T00:28:46;0.93;;;0.82;;
45618;SDS011;31343;47.520;19.144;2023-05-10T00:31:12;3.05;;;1.30;;
45618;SDS011;31343;47.520;19.144;2023-05-10T00:33:37;2.00;;;1.00;;
45618;SDS011;31343;47.520;19.144;2023-05-10T00:36:03;1.88;;;0.98;;
45618;SDS011;31343;47.520;19.144;2023-05-10T00:38:32;2.63;;;1.35;;
45618;SDS011;31343;47.520;19.144;2023-05-10T00:40:58;2.63;;;1.73;;
45618;SDS011;31343;47.520;19.144;2023-05-10T00:43:24;1.42;;;0.82;;
45618;SDS011;31343;47.520;19.144;2023-05-10T00:45:50;1.98;;;1.00;;
45618;SDS011;31343;47.520;19.144;2023-05-10T00:48:16;1.63;;;1.08;;
45618;SDS011;31343;47.520;19.144;2023-05-10T00:50:41;5.10;;;1.45;;
45618;SDS011;31343;47.520;19.144;2023-05-10T00:53:07;1.50;;;1.20;;
45618;SDS011;31343;47.520;19.144;2023-05-10T00:55:34;1.13;;;1.02;;
45618;SDS011;31343;47.520;19.144;2023-05-10T00:58:00;1.88;;;1.17;;
45618;SDS011;31343;47.520;19.144;2023-05-10T01:00:26;0.73;;;0.73;;
45618;SDS011;31343;47.520;19.144;2023-05-10T01:02:55;1.23;;;1.00;;
45618;SDS011;31343;47.520;19.144;2023-05-10T01:05:21;1.85;;;1.10;;
45618;SDS011;31343;47.520;19.144;2023-05-10T01:07:47;1.83;;;1.20;;
45618;SDS011;31343;47.520;19.144;2023-05-10T01:10:13;2.80;;;1.38;;
45618;SDS011;31343;47.520;19.144;2023-05-10T01:12:40;1.40;;;0.98;;
45618;SDS011;31343;47.520;19.144;2023-05-10T01:15:07;2.63;;;1.45;;
45618;SDS011;31343;47.520;19.144;2023-05-10T01:17:36;1.33;;;1.00;;
45618;SDS011;31343;47.520;19.144;2023-05-10T01:20:04;1.40;;;0.85;;
45618;SDS011;31343;47.520;19.144;2023-05-10T01:25:55;1.42;;;1.13;;
45618;SDS011;31343;47.520;19.144;2023-05-10T01:28:53;2.33;;;0.90;;
45618;SDS011;31343;47.520;19.144;2023-05-10T01:34:29;0.77;;;0.75;;
45618;SDS011;31343;47.520;19.144;2023-05-10T01:37:07;2.58;;;1.42;;
45618;SDS011;31343;47.520;19.144;2023-05-10T01:42:21;2.00;;;1.40;;
45618;SDS011;31343;47.520;19.144;2023-05-10T01:47:31;2.00;;;1.10;;
45618;SDS011;31343;47.520;19.144;2023-05-10T01:50:24;1.25;;;1.00;;
45618;SDS011;31343;47.520;19.144;2023-05-10T01:52:55;1.38;;;1.27;;
45618;SDS011;31343;47.520;19.144;2023-05-10T01:55:23;2.10;;;1.10;;
45618;SDS011;31343;47.520;19.144;2023-05-10T01:57:57;1.08;;;0.98;;
45618;SDS011;31343;47.520;19.144;2023-05-10T02:00:28;2.75;;;1.63;;
45618;SDS011;31343;47.520;19.144;2023-05-10T02:02:54;4.43;;;1.52;;
45618;SDS011;31343;47.520;19.144;2023-05-10T02:05:21;1.98;;;1.35;;
45618;SDS011;31343;47.520;19.144;2023-05-10T02:07:47;1.30;;;0.93;;
45618;SDS011;31343;47.520;19.144;2023-05-10T02:10:15;0.90;;;0.73;;
45618;SDS011;31343;47.520;19.144;2023-05-10T02:12:43;1.83;;;1.33;;
45618;SDS011;31343;47.520;19.144;2023-05-10T02:15:12;2.58;;;1.50;;
45618;SDS011;31343;47.520;19.144;2023-05-10T02:17:42;1.45;;;1.13;;
45618;SDS011;31343;47.520;19.144;2023-05-10T02:20:09;1.42;;;1.08;;
45618;SDS011;31343;47.520;19.144;2023-05-10T02:22:36;2.05;;;1.42;;
45618;SDS011;31343;47.520;19.144;2023-05-10T02:25:04;1.30;;;1.15;;
45618;SDS011;31343;47.520;19.144;2023-05-10T02:27:31;1.70;;;1.38;;
45618;SDS011;31343;47.520;19.144;2023-05-10T02:29:57;1.70;;;1.10;;
45618;SDS011;31343;47.520;19.144;2023-05-10T02:32:24;2.40;;;1.70;;
45618;SDS011;31343;47.520;19.144;2023-05-10T02:34:51;1.45;;;0.80;;
45618;SDS011;31343;47.520;19.144;2023-05-10T02:37:21;1.88;;;1.33;;
45618;SDS011;31343;47.520;19.144;2023-05-10T02:39:48;2.17;;;1.48;;
45618;SDS011;31343;47.520;19.144;2023-05-10T02:42:18;1.63;;;1.27;;
45618;SDS011;31343;47.520;19.144;2023-05-10T02:44:47;5.25;;;1.50;;
45618;SDS011;31343;47.520;19.144;2023-05-10T02:47:15;2.10;;;1.23;;
45618;SDS011;31343;47.520;19.144;2023-05-10T02:49:43;4.78;;;1.23;;
45618;SDS011;31343;47.520;19.144;2023-05-10T02:52:09;2.63;;;1.20;;
45618;SDS011;31343;47.520;19.144;2023-05-10T02:54:45;1.73;;;1.25;;
45618;SDS011;31343;47.520;19.144;2023-05-10T02:57:16;1.92;;;1.23;;
45618;SDS011;31343;47.520;19.144;2023-05-10T02:59:47;3.50;;;1.60;;
45618;SDS011;31343;47.520;19.144;2023-05-10T03:02:13;2.15;;;1.38;;
45618;SDS011;31343;47.520;19.144;2023-05-10T03:04:38;1.33;;;0.90;;
45618;SDS011;31343;47.520;19.144;2023-05-10T03:07:04;2.17;;;1.42;;
45618;SDS011;31343;47.520;19.144;2023-05-10T03:09:30;1.70;;;1.27;;
45618;SDS011;31343;47.520;19.144;2023-05-10T03:17:46;1.50;;;1.10;;
45618;SDS011;31343;47.520;19.144;2023-05-10T03:20:31;1.90;;;1.50;;
45618;SDS011;31343;47.520;19.144;2023-05-10T03:25:46;3.17;;;1.80;;
45618;SDS011;31343;47.520;19.144;2023-05-10T03:28:15;2.03;;;1.30;;
45618;SDS011;31343;47.520;19.144;2023-05-10T03:30:43;2.20;;;1.73;;
45618;SDS011;31343;47.520;19.144;2023-05-10T03:33:09;3.40;;;1.52;;
45618;SDS011;31343;47.520;19.144;2023-05-10T03:35:35;2.53;;;1.38;;
45618;SDS011;31343;47.520;19.144;2023-05-10T03:38:01;1.63;;;1.38;;
45618;SDS011;31343;47.520;19.144;2023-05-10T03:40:27;2.63;;;1.38;;
45618;SDS011;31343;47.520;19.144;2023-05-10T03:42:56;1.13;;;1.00;;
45618;SDS011;31343;47.520;19.144;2023-05-10T03:45:22;1.52;;;1.20;;
45618;SDS011;31343;47.520;19.144;2023-05-10T03:47:48;2.13;;;1.52;;
45618;SDS011;31343;47.520;19.144;2023-05-10T03:50:14;1.70;;;1.13;;
45618;SDS011;31343;47.520;19.144;2023-05-10T03:52:39;1.67;;;1.30;;
45618;SDS011;31343;47.520;19.144;2023-05-10T03:55:05;2.33;;;1.02;;
45618;SDS011;31343;47.520;19.144;2023-05-10T03:57:31;2.10;;;1.33;;
45618;SDS011;31343;47.520;19.144;2023-05-10T03:59:57;1.85;;;1.20;;
45618;SDS011;31343;47.520;19.144;2023-05-10T04:02:23;2.47;;;1.65;;
45618;SDS011;31343;47.520;19.144;2023-05-10T04:04:48;1.85;;;1.00;;
45618;SDS011;31343;47.520;19.144;2023-05-10T04:07:14;2.22;;;1.27;;
45618;SDS011;31343;47.520;19.144;2023-05-10T04:09:40;3.15;;;1.75;;
45618;SDS011;31343;47.520;19.144;2023-05-10T04:12:06;1.58;;;1.20;;
45618;SDS011;31343;47.520;19.144;2023-05-10T04:14:31;2.80;;;1.58;;
45618;SDS011;31343;47.520;19.144;2023-05-10T04:16:57;1.50;;;1.08;;
45618;SDS011;31343;47.520;19.144;2023-05-10T04:19:23;1.27;;;1.13;;
45618;SDS011;31343;47.520;19.144;2023-05-10T04:21:49;1.70;;;0.98;;
45618;SDS011;31343;47.520;19.144;2023-05-10T04:24:14;1.92;;;1.35;;
45618;SDS011;31343;47.520;19.144;2023-05-10T04:26:40;2.70;;;1.40;;
45618;SDS011;31343;47.520;19.144;2023-05-10T04:29:06;2.08;;;1.02;;
45618;SDS011;31343;47.520;19.144;2023-05-10T04:31:32;1.60;;;1.23;;
45618;SDS011;31343;47.520;19.144;2023-05-10T04:33:57;2.10;;;1.35;;
45618;SDS011;31343;47.520;19.144;2023-05-10T04:36:23;1.70;;;1.17;;
45618;SDS011;31343;47.520;19.144;2023-05-10T04:38:49;2.28;;;1.48;;
45618;SDS011;31343;47.520;19.144;2023-05-10T04:41:14;1.38;;;1.20;;
45618;SDS011;31343;47.520;19.144;2023-05-10T04:43:40;3.33;;;1.90;;
45618;SDS011;31343;47.520;19.144;2023-05-10T04:46:06;8.00;;;1.60;;
45618;SDS011;31343;47.520;19.144;2023-05-10T04:48:32;2.65;;;1.20;;
45618;SDS011;31343;47.520;19.144;2023-05-10T04:50:58;2.42;;;1.38;;
45618;SDS011;31343;47.520;19.144;2023-05-10T04:53:24;3.05;;;1.77;;
45618;SDS011;31343;47.520;19.144;2023-05-10T04:55:50;2.17;;;1.25;;
45618;SDS011;31343;47.520;19.144;2023-05-10T04:58:16;3.92;;;1.77;;
45618;SDS011;31343;47.520;19.144;2023-05-10T05:00:41;2.75;;;1.80;;
45618;SDS011;31343;47.520;19.144;2023-05-10T05:03:07;2.08;;;1.50;;
45618;SDS011;31343;47.520;19.144;2023-05-10T05:05:33;4.13;;;1.98;;
45618;SDS011;31343;47.520;19.144;2023-05-10T05:07:59;3.15;;;1.70;;
45618;SDS011;31343;47.520;19.144;2023-05-10T05:10:24;2.75;;;1.65;;
45618;SDS011;31343;47.520;19.144;2023-05-10T05:12:50;2.88;;;1.70;;
45618;SDS011;31343;47.520;19.144;2023-05-10T05:15:16;3.78;;;1.80;;
45618;SDS011;31343;47.520;19.144;2023-05-10T05:17:42;1.45;;;1.02;;
45618;SDS011;31343;47.520;19.144;2023-05-10T05:20:09;2.55;;;1.45;;
45618;SDS011;31343;47.520;19.144;2023-05-10T05:22:38;3.70;;;1.88;;
45618;SDS011;31343;47.520;19.144;2023-05-10T05:25:04;2.97;;;1.67;;
45618;SDS011;31343;47.520;19.144;2023-05-10T05:27:31;3.20;;;2.00;;
45618;SDS011;31343;47.520;19.144;2023-05-10T05:29:57;2.40;;;1.55;;
45618;SDS011;31343;47.520;19.144;2023-05-10T05:32:23;2.83;;;1.73;;
45618;SDS011;31343;47.520;19.144;2023-05-10T05:34:49;2.28;;;1.67;;
45618;SDS011;31343;47.520;19.144;2023-05-10T05:37:16;1.35;;;1.15;;
45618;SDS011;31343;47.520;19.144;2023-05-10T05:39:44;2.55;;;1.50;;
45618;SDS011;31343;47.520;19.144;2023-05-10T05:42:11;5.57;;;1.67;;
45618;SDS011;31343;47.520;19.144;2023-05-10T05:44:37;3.60;;;1.30;;
45618;SDS011;31343;47.520;19.144;2023-05-10T05:47:04;1.80;;;1.35;;
45618;SDS011;31343;47.520;19.144;2023-05-10T05:49:31;2.65;;;1.70;;
45618;SDS011;31343;47.520;19.144;2023-05-10T05:52:03;2.05;;;1.55;;
45618;SDS011;31343;47.520;19.144;2023-05-10T05:54:30;2.20;;;1.55;;
45618;SDS011;31343;47.520;19.144;2023-05-10T05:56:57;2.80;;;1.40;;
45618;SDS011;31343;47.520;19.144;2023-05-10T05:59:23;2.72;;;1.75;;
45618;SDS011;31343;47.520;19.144;2023-05-10T06:01:49;2.53;;;1.90;;
45618;SDS011;31343;47.520;19.144;2023-05-10T06:04:16;2.55;;;1.27;;
45618;SDS011;31343;47.520;19.144;2023-05-10T06:06:42;2.22;;;1.45;;
45618;SDS011;31343;47.520;19.144;2023-05-10T06:09:08;1.90;;;1.38;;
45618;SDS011;31343;47.520;19.144;2023-05-10T06:11:34;3.42;;;1.88;;
45618;SDS011;31343;47.520;19.144;2023-05-10T06:14:01;2.38;;;1.48;;
45618;SDS011;31343;47.520;19.144;2023-05-10T06:16:28;3.28;;;2.15;;
45618;SDS011;31343;47.520;19.144;2023-05-10T06:18:54;2.80;;;1.77;;
45618;SDS011;31343;47.520;19.144;2023-05-10T06:21:20;1.75;;;1.25;;
45618;SDS011;31343;47.520;19.144;2023-05-10T06:23:46;2.60;;;1.55;;
45618;SDS011;31343;47.520;19.144;2023-05-10T06:26:12;2.25;;;1.30;;
45618;SDS011;31343;47.520;19.144;2023-05-10T06:28:38;2.50;;;1.48;;
45618;SDS011;31343;47.520;19.144;2023-05-10T06:31:04;2.58;;;1.42;;
45618;SDS011;31343;47.520;19.144;2023-05-10T06:33:31;3.22;;;1.48;;
45618;SDS011;31343;47.520;19.144;2023-05-10T06:35:57;2.05;;;1.67;;
45618;SDS011;31343;47.520;19.144;2023-05-10T06:38:23;2.72;;;1.75;;
45618;SDS011;31343;47.520;19.144;2023-05-10T06:40:49;2.65;;;1.65;;
45618;SDS011;31343;47.520;19.144;2023-05-10T06:43:15;2.50;;;1.65;;
45618;SDS011;31343;47.520;19.144;2023-05-10T06:45:41;2.15;;;1.30;;
45618;SDS011;31343;47.520;19.144;2023-05-10T06:48:06;2.20;;;1.27;;
45618;SDS011;31343;47.520;19.144;2023-05-10T06:50:32;2.88;;;1.75;;
45618;SDS011;31343;47.520;19.144;2023-05-10T06:52:58;2.05;;;1.40;;
45618;SDS011;31343;47.520;19.144;2023-05-10T06:55:24;2.72;;;1.60;;
45618;SDS011;31343;47.520;19.144;2023-05-10T06:57:51;3.58;;;1.67;;
45618;SDS011;31343;47.520;19.144;2023-05-10T07:00:17;2.88;;;1.42;;
45618;SDS011;31343;47.520;19.144;2023-05-10T07:02:43;2.17;;;1.55;;
45618;SDS011;31343;47.520;19.144;2023-05-10T07:05:09;2.97;;;1.80;;
45618;SDS011;31343;47.520;19.144;2023-05-10T07:07:35;2.28;;;1.45;;
45618;SDS011;31343;47.520;19.144;2023-05-10T07:10:01;2.05;;;1.40;;
45618;SDS011;31343;47.520;19.144;2023-05-10T07:12:27;1.83;;;1.33;;
45618;SDS011;31343;47.520;19.144;2023-05-10T07:14:53;2.10;;;1.30;;
45618;SDS011;31343;47.520;19.144;2023-05-10T07:17:19;3.33;;;1.88;;
45618;SDS011;31343;47.520;19.144;2023-05-10T07:19:45;2.58;;;1.40;;
45618;SDS011;31343;47.520;19.144;2023-05-10T07:22:10;1.88;;;1.23;;
45618;SDS011;31343;47.520;19.144;2023-05-10T07:24:36;2.17;;;1.33;;
45618;SDS011;31343;47.520;19.144;2023-05-10T07:27:03;2.28;;;1.48;;
45618;SDS011;31343;47.520;19.144;2023-05-10T07:29:29;3.25;;;1.88;;
45618;SDS011;31343;47.520;19.144;2023-05-10T07:31:55;3.05;;;1.63;;
45618;SDS011;31343;47.520;19.144;2023-05-10T07:34:21;2.58;;;1.60;;
45618;SDS011;31343;47.520;19.144;2023-05-10T07:36:47;3.95;;;1.70;;
45618;SDS011;31343;47.520;19.144;2023-05-10T07:39:12;4.40;;;1.52;;
45618;SDS011;31343;47.520;19.144;2023-05-10T07:41:38;2.85;;;1.83;;
45618;SDS011;31343;47.520;19.144;2023-05-10T07:44:04;2.17;;;1.30;;
45618;SDS011;31343;47.520;19.144;2023-05-10T07:46:30;2.40;;;1.50;;
45618;SDS011;31343;47.520;19.144;2023-05-10T07:48:56;2.50;;;1.38;;
45618;SDS011;31343;47.520;19.144;2023-05-10T07:51:22;2.22;;;1.33;;
45618;SDS011;31343;47.520;19.144;2023-05-10T07:53:48;1.92;;;1.50;;
45618;SDS011;31343;47.520;19.144;2023-05-10T07:59:14;3.17;;;1.48;;
45618;SDS011;31343;47.520;19.144;2023-05-10T08:01:41;2.35;;;1.35;;
45618;SDS011;31343;47.520;19.144;2023-05-10T08:04:08;1.45;;;1.05;;
45618;SDS011;31343;47.520;19.144;2023-05-10T08:06:33;1.60;;;1.08;;
45618;SDS011;31343;47.520;19.144;2023-05-10T08:08:59;2.00;;;1.15;;
45618;SDS011;31343;47.520;19.144;2023-05-10T08:11:25;2.03;;;1.40;;
45618;SDS011;31343;47.520;19.144;2023-05-10T08:13:53;2.33;;;1.42;;
45618;SDS011;31343;47.520;19.144;2023-05-10T08:16:19;4.57;;;1.73;;
45618;SDS011;31343;47.520;19.144;2023-05-10T08:18:45;4.10;;;1.58;;
45618;SDS011;31343;47.520;19.144;2023-05-10T08:21:12;1.80;;;1.50;;
45618;SDS011;31343;47.520;19.144;2023-05-10T08:23:38;1.83;;;1.35;;
45618;SDS011;31343;47.520;19.144;2023-05-10T08:26:04;3.30;;;1.48;;
45618;SDS011;31343;47.520;19.144;2023-05-10T08:28:30;2.05;;;1.25;;
45618;SDS011;31343;47.520;19.144;2023-05-10T08:30:56;2.40;;;1.40;;
45618;SDS011;31343;47.520;19.144;2023-05-10T08:33:22;2.20;;;1.40;;
45618;SDS011;31343;47.520;19.144;2023-05-10T08:35:48;2.83;;;1.65;;
45618;SDS011;31343;47.520;19.144;2023-05-10T08:38:13;2.45;;;1.52;;
45618;SDS011;31343;47.520;19.144;2023-05-10T08:40:41;2.03;;;1.30;;
45618;SDS011;31343;47.520;19.144;2023-05-10T08:43:08;2.08;;;1.40;;
45618;SDS011;31343;47.520;19.144;2023-05-10T08:45:37;2.50;;;1.50;;
45618;SDS011;31343;47.520;19.144;2023-05-10T08:48:07;1.77;;;1.20;;
45618;SDS011;31343;47.520;19.144;2023-05-10T08:50:36;2.72;;;1.40;;
45618;SDS011;31343;47.520;19.144;2023-05-10T08:53:05;2.55;;;1.60;;
45618;SDS011;31343;47.520;19.144;2023-05-10T08:55:35;3.38;;;1.77;;
45618;SDS011;31343;47.520;19.144;2023-05-10T08:58:03;2.42;;;1.42;;
45618;SDS011;31343;47.520;19.144;2023-05-10T09:00:30;2.38;;;1.42;;
45618;SDS011;31343;47.520;19.144;2023-05-10T09:02:57;1.83;;;1.42;;
45618;SDS011;31343;47.520;19.144;2023-05-10T09:05:24;1.55;;;1.30;;
45618;SDS011;31343;47.520;19.144;2023-05-10T09:07:49;2.00;;;1.38;;
45618;SDS011;31343;47.520;19.144;2023-05-10T09:10:15;3.28;;;1.75;;
45618;SDS011;31343;47.520;19.144;2023-05-10T09:12:41;1.65;;;1.08;;
45618;SDS011;31343;47.520;19.144;2023-05-10T09:15:09;1.90;;;1.20;;
45618;SDS011;31343;47.520;19.144;2023-05-10T09:17:36;2.70;;;1.20;;
45618;SDS011;31343;47.520;19.144;2023-05-10T09:20:04;2.38;;;1.33;;
45618;SDS011;31343;47.520;19.144;2023-05-10T09:22:30;2.38;;;1.63;;
45618;SDS011;31343;47.520;19.144;2023-05-10T09:25:06;4.32;;;1.45;;
45618;SDS011;31343;47.520;19.144;2023-05-10T09:27:33;2.00;;;1.20;;
45618;SDS011;31343;47.520;19.144;2023-05-10T09:29:59;1.73;;;1.05;;
45618;SDS011;31343;47.520;19.144;2023-05-10T09:32:38;2.88;;;1.60;;
45618;SDS011;31343;47.520;19.144;2023-05-10T09:35:06;3.05;;;1.45;;
45618;SDS011;31343;47.520;19.144;2023-05-10T09:37:35;2.78;;;2.00;;
45618;SDS011;31343;47.520;19.144;2023-05-10T09:40:05;2.25;;;1.50;;
45618;SDS011;31343;47.520;19.144;2023-05-10T09:42:33;2.38;;;1.33;;
45618;SDS011;31343;47.520;19.144;2023-05-10T09:45:03;2.28;;;1.33;;
45618;SDS011;31343;47.520;19.144;2023-05-10T09:47:33;2.30;;;1.58;;
45618;SDS011;31343;47.520;19.144;2023-05-10T09:49:59;1.20;;;1.10;;
45618;SDS011;31343;47.520;19.144;2023-05-10T09:52:48;1.88;;;1.17;;
45618;SDS011;31343;47.520;19.144;2023-05-10T09:55:23;1.75;;;1.08;;
45618;SDS011;31343;47.520;19.144;2023-05-10T09:58:00;2.30;;;1.60;;
45618;SDS011;31343;47.520;19.144;2023-05-10T10:00:26;1.85;;;1.20;;
45618;SDS011;31343;47.520;19.144;2023-05-10T10:02:56;1.85;;;1.27;;
45618;SDS011;31343;47.520;19.144;2023-05-10T10:05:32;2.10;;;1.40;;
45618;SDS011;31343;47.520;19.144;2023-05-10T10:08:01;1.55;;;1.10;;
45618;SDS011;31343;47.520;19.144;2023-05-10T10:10:28;2.20;;;1.27;;
45618;SDS011;31343;47.520;19.144;2023-05-10T10:12:55;1.98;;;1.40;;
45618;SDS011;31343;47.520;19.144;2023-05-10T10:15:21;1.90;;;1.10;;
45618;SDS011;31343;47.520;19.144;2023-05-10T10:17:48;1.75;;;1.08;;
45618;SDS011;31343;47.520;19.144;2023-05-10T10:20:15;2.25;;;1.30;;
45618;SDS011;31343;47.520;19.144;2023-05-10T10:22:41;1.52;;;1.02;;
45618;SDS011;31343;47.520;19.144;2023-05-10T10:25:10;3.90;;;1.52;;
45618;SDS011;31343;47.520;19.144;2023-05-10T10:35:59;1.40;;;1.00;;
45618;SDS011;31343;47.520;19.144;2023-05-10T10:38:35;1.42;;;1.00;;
45618;SDS011;31343;47.520;19.144;2023-05-10T10:41:31;1.20;;;0.80;;
45618;SDS011;31343;47.520;19.144;2023-05-10T10:46:59;2.35;;;1.30;;
45618;SDS011;31343;47.520;19.144;2023-05-10T10:52:33;1.13;;;0.75;;
45618;SDS011;31343;47.520;19.144;2023-05-10T10:55:01;1.23;;;0.77;;
45618;SDS011;31343;47.520;19.144;2023-05-10T10:57:32;1.23;;;1.13;;
45618;SDS011;31343;47.520;19.144;2023-05-10T11:00:23;1.80;;;1.70;;
45618;SDS011;31343;47.520;19.144;2023-05-10T11:02:50;1.80;;;0.90;;
45618;SDS011;31343;47.520;19.144;2023-05-10T11:05:40;1.02;;;0.70;;
45618;SDS011;31343;47.520;19.144;2023-05-10T11:08:41;1.85;;;1.15;;
45618;SDS011;31343;47.520;19.144;2023-05-10T11:15:59;1.55;;;0.80;;
45618;SDS011;31343;47.520;19.144;2023-05-10T11:18:59;1.40;;;0.90;;
45618;SDS011;31343;47.520;19.144;2023-05-10T11:21:30;1.58;;;1.10;;
45618;SDS011;31343;47.520;19.144;2023-05-10T11:23:58;1.00;;;0.70;;
45618;SDS011;31343;47.520;19.144;2023-05-10T11:26:26;1.17;;;0.90;;
45618;SDS011;31343;47.520;19.144;2023-05-10T11:28:56;1.05;;;0.82;;
45618;SDS011;31343;47.520;19.144;2023-05-10T11:31:23;1.42;;;0.73;;
45618;SDS011;31343;47.520;19.144;2023-05-10T11:33:52;1.13;;;0.82;;
45618;SDS011;31343;47.520;19.144;2023-05-10T11:36:35;1.45;;;1.05;;
45618;SDS011;31343;47.520;19.144;2023-05-10T11:39:01;0.80;;;0.68;;
45618;SDS011;31343;47.520;19.144;2023-05-10T11:41:28;1.25;;;1.15;;
45618;SDS011;31343;47.520;19.144;2023-05-10T11:43:55;1.58;;;1.27;;
45618;SDS011;31343;47.520;19.144;2023-05-10T11:46:22;1.05;;;0.75;;
45618;SDS011;31343;47.520;19.144;2023-05-10T11:48:50;0.93;;;0.70;;
45618;SDS011;31343;47.520;19.144;2023-05-10T11:51:21;1.10;;;0.80;;
45618;SDS011;31343;47.520;19.144;2023-05-10T11:53:48;2.58;;;1.13;;
45618;SDS011;31343;47.520;19.144;2023-05-10T11:56:15;0.98;;;0.80;;
45618;SDS011;31343;47.520;19.144;2023-05-10T11:58:41;1.80;;;0.80;;
45618;SDS011;31343;47.520;19.144;2023-05-10T12:01:07;1.00;;;0.80;;
45618;SDS011;31343;47.520;19.144;2023-05-10T12:03:34;1.05;;;0.90;;
45618;SDS011;31343;47.520;19.144;2023-05-10T12:06:01;1.52;;;0.88;;
45618;SDS011;31343;47.520;19.144;2023-05-10T12:08:28;1.02;;;0.80;;
45618;SDS011;31343;47.520;19.144;2023-05-10T12:11:04;1.08;;;0.70;;
45618;SDS011;31343;47.520;19.144;2023-05-10T12:13:31;1.25;;;1.13;;
45618;SDS011;31343;47.520;19.144;2023-05-10T12:15:57;2.78;;;0.82;;
45618;SDS011;31343;47.520;19.144;2023-05-10T12:18:23;1.55;;;0.50;;
45618;SDS011;31343;47.520;19.144;2023-05-10T12:20:52;1.85;;;0.80;;
45618;SDS011;31343;47.520;19.144;2023-05-10T12:23:18;1.60;;;0.90;;
45618;SDS011;31343;47.520;19.144;2023-05-10T12:25:45;0.80;;;0.55;;
45618;SDS011;31343;47.520;19.144;2023-05-10T12:28:11;1.25;;;0.80;;
45618;SDS011;31343;47.520;19.144;2023-05-10T12:30:38;1.55;;;0.88;;
45618;SDS011;31343;47.520;19.144;2023-05-10T12:33:08;1.20;;;0.80;;
45618;SDS011;31343;47.520;19.144;2023-05-10T12:35:49;1.00;;;0.70;;
45618;SDS011;31343;47.520;19.144;2023-05-10T12:38:26;1.58;;;1.08;;
45618;SDS011;31343;47.520;19.144;2023-05-10T12:40:58;0.82;;;0.70;;
45618;SDS011;31343;47.520;19.144;2023-05-10T12:43:27;0.70;;;0.70;;
45618;SDS011;31343;47.520;19.144;2023-05-10T12:45:54;1.50;;;0.85;;
45618;SDS011;31343;47.520;19.144;2023-05-10T12:48:19;0.60;;;0.50;;
45618;SDS011;31343;47.520;19.144;2023-05-10T12:50:45;1.35;;;0.82;;
45618;SDS011;31343;47.520;19.144;2023-05-10T12:53:12;1.40;;;0.63;;
45618;SDS011;31343;47.520;19.144;2023-05-10T12:55:40;1.20;;;0.77;;
45618;SDS011;31343;47.520;19.144;2023-05-10T12:58:06;1.10;;;0.70;;
45618;SDS011;31343;47.520;19.144;2023-05-10T13:00:32;1.58;;;1.00;;
45618;SDS011;31343;47.520;19.144;2023-05-10T13:02:58;1.42;;;0.82;;
45618;SDS011;31343;47.520;19.144;2023-05-10T13:05:24;0.80;;;0.70;;
45618;SDS011;31343;47.520;19.144;2023-05-10T13:07:49;0.73;;;0.57;;
45618;SDS011;31343;47.520;19.144;2023-05-10T13:10:15;1.05;;;0.70;;
45618;SDS011;31343;47.520;19.144;2023-05-10T13:12:41;1.05;;;0.73;;
45618;SDS011;31343;47.520;19.144;2023-05-10T13:15:07;0.77;;;0.75;;
45618;SDS011;31343;47.520;19.144;2023-05-10T13:17:33;0.68;;;0.65;;
45618;SDS011;31343;47.520;19.144;2023-05-10T13:20:00;0.77;;;0.65;;
45618;SDS011;31343;47.520;19.144;2023-05-10T13:22:26;3.10;;;0.70;;
45618;SDS011;31343;47.520;19.144;2023-05-10T13:24:51;1.25;;;0.68;;
45618;SDS011;31343;47.520;19.144;2023-05-10T13:27:17;0.80;;;0.57;;
45618;SDS011;31343;47.520;19.144;2023-05-10T13:29:43;0.80;;;0.63;;
45618;SDS011;31343;47.520;19.144;2023-05-10T13:32:08;1.58;;;0.90;;
45618;SDS011;31343;47.520;19.144;2023-05-10T13:34:34;1.13;;;0.88;;
45618;SDS011;31343;47.520;19.144;2023-05-10T13:37:19;1.10;;;0.80;;
45618;SDS011;31343;47.520;19.144;2023-05-10T13:39:45;1.10;;;0.70;;
45618;SDS011;31343;47.520;19.144;2023-05-10T13:42:11;2.53;;;0.88;;
45618;SDS011;31343;47.520;19.144;2023-05-10T13:44:37;1.17;;;0.77;;
45618;SDS011;31343;47.520;19.144;2023-05-10T13:47:04;1.23;;;0.90;;
45618;SDS011;31343;47.520;19.144;2023-05-10T13:49:32;0.63;;;0.60;;
45618;SDS011;31343;47.520;19.144;2023-05-10T13:51:59;1.13;;;0.75;;
45618;SDS011;31343;47.520;19.144;2023-05-10T13:54:33;1.98;;;0.73;;
45618;SDS011;31343;47.520;19.144;2023-05-10T13:57:05;2.42;;;1.25;;
45618;SDS011;31343;47.520;19.144;2023-05-10T13:59:31;1.33;;;0.70;;
45618;SDS011;31343;47.520;19.144;2023-05-10T14:01:58;1.20;;;0.82;;
45618;SDS011;31343;47.520;19.144;2023-05-10T14:04:24;1.23;;;0.82;;
45618;SDS011;31343;47.520;19.144;2023-05-10T14:06:51;1.48;;;0.90;;
45618;SDS011;31343;47.520;19.144;2023-05-10T14:09:18;0.55;;;0.55;;
45618;SDS011;31343;47.520;19.144;2023-05-10T14:11:45;1.20;;;0.82;;
45618;SDS011;31343;47.520;19.144;2023-05-10T14:14:11;1.75;;;1.10;;
45618;SDS011;31343;47.520;19.144;2023-05-10T14:16:38;1.10;;;1.00;;
45618;SDS011;31343;47.520;19.144;2023-05-10T14:19:07;1.13;;;0.55;;
45618;SDS011;31343;47.520;19.144;2023-05-10T14:21:34;1.08;;;0.88;;
45618;SDS011;31343;47.520;19.144;2023-05-10T14:24:00;0.93;;;0.55;;
45618;SDS011;31343;47.520;19.144;2023-05-10T14:26:27;0.93;;;0.55;;
45618;SDS011;31343;47.520;19.144;2023-05-10T14:28:53;1.40;;;0.70;;
45618;SDS011;31343;47.520;19.144;2023-05-10T14:31:19;0.43;;;0.43;;
45618;SDS011;31343;47.520;19.144;2023-05-10T14:33:46;2.60;;;0.70;;
45618;SDS011;31343;47.520;19.144;2023-05-10T14:36:12;0.40;;;0.40;;
45618;SDS011;31343;47.520;19.144;2023-05-10T14:38:38;5.95;;;1.10;;
45618;SDS011;31343;47.520;19.144;2023-05-10T14:41:04;1.50;;;0.50;;
45618;SDS011;31343;47.520;19.144;2023-05-10T14:43:30;0.68;;;0.50;;
45618;SDS011;31343;47.520;19.144;2023-05-10T14:45:57;1.65;;;0.95;;
45618;SDS011;31343;47.520;19.144;2023-05-10T14:48:23;0.93;;;0.70;;
45618;SDS011;31343;47.520;19.144;2023-05-10T14:50:48;0.63;;;0.63;;
45618;SDS011;31343;47.520;19.144;2023-05-10T14:53:15;1.25;;;0.70;;
45618;SDS011;31343;47.520;19.144;2023-05-10T14:55:41;0.65;;;0.60;;
45618;SDS011;31343;47.520;19.144;2023-05-10T14:58:07;0.40;;;0.40;;
45618;SDS011;31343;47.520;19.144;2023-05-10T15:00:33;1.20;;;0.73;;
45618;SDS011;31343;47.520;19.144;2023-05-10T15:02:58;0.77;;;0.60;;
45618;SDS011;31343;47.520;19.144;2023-05-10T15:05:24;0.90;;;0.82;;
45618;SDS011;31343;47.520;19.144;2023-05-10T15:07:50;1.27;;;0.60;;
45618;SDS011;31343;47.520;19.144;2023-05-10T15:10:15;0.85;;;0.60;;
45618;SDS011;31343;47.520;19.144;2023-05-10T15:12:42;0.45;;;0.45;;
45618;SDS011;31343;47.520;19.144;2023-05-10T15:15:08;0.60;;;0.60;;
45618;SDS011;31343;47.520;19.144;2023-05-10T15:17:34;0.45;;;0.43;;
45618;SDS011;31343;47.520;19.144;2023-05-10T15:20:01;0.50;;;0.50;;